Αρχική σελίδα
METAR-TAF:

METAR-TAF

Αεροδρόμια :

Hays, Κάνσας, Ηνωμένες Πολιτείες Αμερικής

γεωγραφικό πλάτος: 38-51N, γεωγραφικό μήκος: 099-16W, υψόμετρο: 609 μ

Παρών καιρός

Η αναφορά έγινε 19 λεπτά πριν, στις 06:56 UTC
Ήπιος άνεμος
Θερμοκρασία 10°C
Υγρασία 87%
Πίεση 1027 hPa
Ορατότητα: 16.1 χλμ
Καθαρός ουρανός

METAR: KHYS 220656Z AUTO 00000KT 10SM CLR 10/08 A3032 RMK AO2 SLP262 T01000078 PNO $

Χρόνος: 02:15 (07:15 UTC)

Πρόγνωση Καιρού

Η αναφορά έγινε 1 ώρα και 55 λεπτά πριν, στις 05:20 UTC
Η πρόγνωση ισχύει από τις 22 στις 06 UTC έως τις 23 στις 06 UTC
Άνεμος 7 kt από BA
Ορατότητα: 10 χλμ
Καθαρός ουρανός
Από 22 στις 1400 UTC
Άνεμος 8 kt από ΝA
Ορατότητα: 10 χλμ
Καθαρός ουρανός

TAF: KHYS 220520Z 2206/2306 04007KT P6SM SKC FM221400 13008KT P6SM SKC

Μετεωρολογικές αναφορές και προγνώσεις για περισσότερα από 4000 αεροδρόμια (δελτία METAR και TAF).

Οι διαθέσιμοι σταθμοί απεικονίζονται στο χάρτη με κίτρινες και κόκκινες κουκκίδες.

Μετακινήστε το ποντίκι πάνω από τις κουκκίδες για να δείτε το όνομα του σταθμού.

Στη συνέχεια, κάντε κλικ για να δείτε τις μετεωρολογικές αναφορές και τις προγνώσεις καιρού.

Για να αλλάξετε το χάρτη: κάντε κλικ στα πράσινα κουμπιά με τον μαύρο σταυρό για να ζουμάρετε, στο πράσινο κουμπί με την παύλα για να αφαιρέσετε το ζουμ ή στα πράσινα βέλη για να αντιπαραβάλλετε χάρτες.


METAR-TAF: